createdAt,value
2019-01-17T00:00:58.994Z,85.93
2019-01-17T00:01:59.023Z,85.93
2019-01-17T00:02:59.052Z,86.11
2019-01-17T00:03:59.080Z,86.40
2019-01-17T00:04:59.111Z,86.11
2019-01-17T00:05:59.137Z,85.93
2019-01-17T00:06:59.164Z,86.49
2019-01-17T00:07:59.194Z,86.49
2019-01-17T00:08:59.222Z,86.30
2019-01-17T00:09:59.251Z,85.93
2019-01-17T00:10:59.280Z,86.30
2019-01-17T00:11:59.308Z,85.93
2019-01-17T00:12:59.337Z,85.83
2019-01-17T00:13:59.368Z,85.83
2019-01-17T00:14:59.393Z,86.02
2019-01-17T00:15:59.425Z,85.93
2019-01-17T00:16:59.452Z,85.93
2019-01-17T00:17:59.480Z,86.30
2019-01-17T00:18:59.506Z,86.02
2019-01-17T00:19:59.539Z,86.30
2019-01-17T00:20:59.564Z,86.40
2019-01-17T00:21:59.594Z,86.40
2019-01-17T00:22:59.622Z,86.40
2019-01-17T00:24:02.754Z,86.49
2019-01-17T00:24:59.679Z,86.40
2019-01-17T00:25:59.708Z,86.30
2019-01-17T00:26:59.735Z,86.30
2019-01-17T00:27:59.763Z,86.21
2019-01-17T00:28:59.792Z,86.30
2019-01-17T00:29:59.821Z,86.40
2019-01-17T00:30:59.851Z,86.40
2019-01-17T00:31:59.878Z,86.40
2019-01-17T00:32:59.907Z,86.40
2019-01-17T00:33:59.935Z,86.40
2019-01-17T00:34:59.965Z,86.30
2019-01-17T00:35:59.993Z,86.49
2019-01-17T00:37:00.020Z,86.40
2019-01-17T00:38:00.047Z,86.40
2019-01-17T00:39:00.076Z,86.49
2019-01-17T00:40:00.233Z,86.30
2019-01-17T00:41:00.135Z,86.59
2019-01-17T00:42:00.165Z,86.21
2019-01-17T00:43:00.191Z,86.40
2019-01-17T00:44:00.220Z,86.68
2019-01-17T00:45:00.247Z,86.68
2019-01-17T00:46:00.275Z,86.26
2019-01-17T00:47:00.304Z,86.74
2019-01-17T00:48:00.334Z,86.64
2019-01-17T00:49:00.361Z,86.45
2019-01-17T00:50:00.390Z,87.02
2019-01-17T00:51:00.417Z,86.83
2019-01-17T00:52:00.449Z,86.87
2019-01-17T00:53:00.475Z,86.55
2019-01-17T00:54:00.503Z,86.55
2019-01-17T00:55:00.536Z,86.74
2019-01-17T00:56:00.560Z,86.64
2019-01-17T00:57:00.594Z,86.83
2019-01-17T00:58:00.617Z,86.74
2019-01-17T00:59:00.644Z,86.93
2019-01-17T01:00:00.676Z,86.74
2019-01-17T01:01:00.703Z,86.55
2019-01-17T01:02:00.733Z,86.74
2019-01-17T01:03:00.761Z,86.55
2019-01-17T01:04:00.787Z,86.55
2019-01-17T01:05:00.816Z,86.74
2019-01-17T01:06:00.844Z,86.64
2019-01-17T01:07:00.873Z,86.74
2019-01-17T01:08:00.903Z,87.30
2019-01-17T01:09:00.929Z,87.12
2019-01-17T01:10:00.957Z,87.21
2019-01-17T01:11:00.985Z,87.21
2019-01-17T01:12:01.015Z,87.12
2019-01-17T01:13:01.043Z,86.64
2019-01-17T01:14:01.075Z,86.83
2019-01-17T01:15:01.098Z,86.55
2019-01-17T01:16:01.128Z,86.35
2019-01-17T01:17:01.156Z,86.26
2019-01-17T01:18:01.185Z,86.93
2019-01-17T01:19:01.214Z,86.55
2019-01-17T01:20:01.242Z,86.45
2019-01-17T01:21:01.271Z,86.64
2019-01-17T01:22:01.298Z,86.55
2019-01-17T01:23:01.331Z,86.55
2019-01-17T01:24:01.357Z,86.64
2019-01-17T01:25:01.383Z,86.49
2019-01-17T01:26:01.412Z,86.55
2019-01-17T01:27:01.441Z,86.59
2019-01-17T01:28:01.483Z,86.78
2019-01-17T01:29:01.497Z,86.40
2019-01-17T01:30:01.528Z,86.68
2019-01-17T01:31:01.555Z,86.68
2019-01-17T01:32:01.581Z,86.40
2019-01-17T01:33:01.610Z,86.49
2019-01-17T01:34:01.637Z,86.30
2019-01-17T01:35:01.690Z,85.93
2019-01-17T01:36:01.698Z,86.11
2019-01-17T01:37:01.723Z,86.30
2019-01-17T01:38:01.751Z,86.02
2019-01-17T01:39:01.779Z,86.11
2019-01-17T01:40:01.813Z,86.11
2019-01-17T01:41:01.837Z,85.93
2019-01-17T01:42:01.866Z,86.02
2019-01-17T01:43:01.892Z,85.83
2019-01-17T01:44:01.922Z,86.21
2019-01-17T01:45:01.953Z,86.11
2019-01-17T01:46:01.978Z,86.11
2019-01-17T01:47:02.005Z,86.30
2019-01-17T01:48:02.061Z,86.02
2019-01-17T01:49:02.063Z,85.83
2019-01-17T01:50:02.094Z,86.11
2019-01-17T01:51:02.120Z,86.30
2019-01-17T01:52:02.149Z,85.64
2019-01-17T01:53:02.175Z,85.93
2019-01-17T01:54:02.210Z,86.30
2019-01-17T01:55:02.237Z,86.30
2019-01-17T01:56:02.264Z,85.64
2019-01-17T01:57:02.290Z,85.83
2019-01-17T01:58:02.320Z,85.64
2019-01-17T01:59:02.346Z,85.64
2019-01-17T02:00:02.382Z,85.64
2019-01-17T02:01:02.403Z,85.74
2019-01-17T02:02:02.435Z,85.74
2019-01-17T02:03:02.460Z,85.26
2019-01-17T02:04:02.492Z,85.55
2019-01-17T02:05:02.521Z,85.45
2019-01-17T02:06:02.547Z,85.55
2019-01-17T02:07:02.575Z,85.64
2019-01-17T02:08:02.607Z,85.74
2019-01-17T02:09:02.630Z,85.93
2019-01-17T02:10:02.662Z,85.93
2019-01-17T02:11:02.688Z,85.64
2019-01-17T02:12:02.718Z,85.45
2019-01-17T02:13:02.745Z,85.45
2019-01-17T02:14:02.773Z,85.74
2019-01-17T02:15:02.802Z,86.02
2019-01-17T02:16:02.829Z,86.02
2019-01-17T02:17:02.858Z,85.74
2019-01-17T02:18:02.887Z,85.64
2019-01-17T02:19:02.920Z,85.55
2019-01-17T02:20:02.944Z,85.45
2019-01-17T02:21:02.972Z,84.98
2019-01-17T02:22:03.001Z,85.45
2019-01-17T02:23:03.029Z,85.55
2019-01-17T02:24:03.058Z,85.64
2019-01-17T02:25:03.086Z,85.26
2019-01-17T02:26:03.116Z,85.17
2019-01-17T02:27:03.141Z,85.17
2019-01-17T02:28:03.170Z,85.36
2019-01-17T02:29:03.199Z,85.36
2019-01-17T02:30:03.228Z,85.26
2019-01-17T02:31:03.257Z,85.07
2019-01-17T02:32:03.290Z,84.50
2019-01-17T02:33:03.313Z,84.59
2019-01-17T02:34:03.341Z,84.98
2019-01-17T02:35:03.369Z,84.50
2019-01-17T02:36:03.397Z,84.69
2019-01-17T02:37:03.430Z,84.88
2019-01-17T02:38:03.455Z,84.78
2019-01-17T02:39:03.484Z,84.98
2019-01-17T02:40:03.510Z,84.88
2019-01-17T02:41:03.540Z,84.88
2019-01-17T02:42:03.569Z,84.41
2019-01-17T02:43:03.609Z,84.59
2019-01-17T02:44:03.628Z,84.31
2019-01-17T02:45:03.654Z,84.22
2019-01-17T02:46:03.698Z,84.22
2019-01-17T02:47:03.708Z,84.31
2019-01-17T02:48:03.743Z,84.31
2019-01-17T02:49:03.766Z,84.41
2019-01-17T02:50:03.796Z,84.03
2019-01-17T02:51:03.824Z,84.03
2019-01-17T02:52:03.852Z,84.22
2019-01-17T02:53:03.880Z,84.41
2019-01-17T02:54:03.908Z,84.03
2019-01-17T02:55:03.945Z,83.84
2019-01-17T02:56:03.966Z,83.84
2019-01-17T02:57:03.994Z,83.74
2019-01-17T02:58:04.023Z,83.94
2019-01-17T02:59:04.052Z,84.03
2019-01-17T03:00:04.102Z,84.12
2019-01-17T03:01:04.115Z,84.03
2019-01-17T03:02:04.140Z,83.84
2019-01-17T03:03:04.164Z,84.03
2019-01-17T03:04:04.193Z,83.74
2019-01-17T03:05:04.223Z,83.55
2019-01-17T03:06:04.251Z,83.08
2019-01-17T03:07:04.281Z,83.74
2019-01-17T03:08:04.312Z,83.17
2019-01-17T03:09:04.339Z,83.27
2019-01-17T03:10:04.366Z,83.59
2019-01-17T03:11:04.394Z,83.36
2019-01-17T03:12:04.422Z,83.55
2019-01-17T03:13:04.451Z,82.74
2019-01-17T03:14:04.482Z,83.12
2019-01-17T03:15:04.507Z,82.46
2019-01-17T03:16:04.539Z,83.03
2019-01-17T03:17:04.564Z,83.03
2019-01-17T03:18:04.608Z,82.65
2019-01-17T03:19:04.621Z,82.55
2019-01-17T03:20:04.651Z,82.46
2019-01-17T03:21:04.686Z,82.27
2019-01-17T03:22:04.707Z,82.55
2019-01-17T03:23:04.737Z,82.27
2019-01-17T03:24:04.764Z,82.55
2019-01-17T03:25:04.796Z,82.65
2019-01-17T03:26:04.823Z,82.08
2019-01-17T03:27:04.852Z,82.27
2019-01-17T03:28:04.879Z,82.17
2019-01-17T03:29:04.908Z,82.17
2019-01-17T03:30:04.938Z,81.70
2019-01-17T03:31:04.966Z,81.79
2019-01-17T03:32:04.997Z,81.88
2019-01-17T03:33:05.029Z,81.60
2019-01-17T03:34:05.057Z,81.60
2019-01-17T03:35:05.085Z,81.51
2019-01-17T03:36:05.109Z,81.51
2019-01-17T03:37:05.137Z,81.60
2019-01-17T03:38:05.166Z,81.70
2019-01-17T03:39:05.195Z,82.08
2019-01-17T03:40:05.223Z,82.08
2019-01-17T03:41:05.252Z,81.70
2019-01-17T03:42:05.282Z,81.51
2019-01-17T03:43:05.308Z,81.41
2019-01-17T03:44:05.342Z,81.60
2019-01-17T03:45:05.370Z,81.70
2019-01-17T03:46:05.398Z,81.60
2019-01-17T03:47:05.425Z,81.51
2019-01-17T03:48:05.454Z,81.51
2019-01-17T03:49:05.482Z,81.51
2019-01-17T03:50:05.511Z,81.41
2019-01-17T03:51:05.538Z,81.51
2019-01-17T03:52:05.570Z,82.27
2019-01-17T03:53:05.595Z,81.88
2019-01-17T03:54:05.638Z,81.60
2019-01-17T03:55:05.653Z,81.51
2019-01-17T03:56:05.687Z,82.36
2019-01-17T03:57:05.714Z,82.36
2019-01-17T03:58:05.740Z,82.27
2019-01-17T03:59:05.769Z,82.36
2019-01-17T04:00:05.800Z,82.65
2019-01-17T04:01:05.826Z,82.74
2019-01-17T04:02:05.855Z,83.12
2019-01-17T04:03:05.883Z,83.03
2019-01-17T04:04:05.912Z,82.46
2019-01-17T04:05:05.942Z,82.55
2019-01-17T04:06:05.979Z,82.36
2019-01-17T04:07:05.999Z,82.74
2019-01-17T04:08:06.029Z,82.84
2019-01-17T04:09:06.059Z,83.03
2019-01-17T04:10:06.084Z,83.03
2019-01-17T04:11:06.114Z,83.03
2019-01-17T04:12:06.144Z,83.03
2019-01-17T04:13:06.170Z,83.03
2019-01-17T04:14:06.201Z,82.93
2019-01-17T04:15:06.230Z,83.03
2019-01-17T04:16:06.258Z,82.93
2019-01-17T04:17:06.288Z,83.12
2019-01-17T04:18:06.316Z,82.65
2019-01-17T04:19:06.345Z,83.03
2019-01-17T04:20:06.400Z,82.74
2019-01-17T04:21:06.403Z,82.74
2019-01-17T04:22:06.433Z,83.59
2019-01-17T04:23:06.461Z,83.59
2019-01-17T04:24:06.490Z,83.12
2019-01-17T04:25:06.520Z,83.31
2019-01-17T04:26:06.547Z,83.40
2019-01-17T04:27:06.576Z,83.40
2019-01-17T04:28:06.605Z,83.59
2019-01-17T04:29:06.634Z,83.12
2019-01-17T04:30:06.664Z,83.22
2019-01-17T04:31:06.691Z,83.31
2019-01-17T04:32:06.727Z,83.31
2019-01-17T04:33:06.753Z,83.50
2019-01-17T04:34:06.781Z,83.40
2019-01-17T04:35:06.807Z,83.22
2019-01-17T04:36:06.837Z,83.40
2019-01-17T04:37:06.866Z,83.59
2019-01-17T04:38:06.895Z,83.78
2019-01-17T04:39:06.924Z,84.07
2019-01-17T04:40:06.955Z,84.07
2019-01-17T04:41:06.985Z,83.78
2019-01-17T04:42:07.023Z,83.78
2019-01-17T04:43:07.042Z,83.59
2019-01-17T04:44:07.068Z,83.40
2019-01-17T04:45:07.099Z,83.50
2019-01-17T04:46:07.129Z,83.50
2019-01-17T04:47:07.156Z,84.07
2019-01-17T04:48:07.185Z,83.50
2019-01-17T04:49:07.214Z,83.50
2019-01-17T04:50:07.254Z,84.17
2019-01-17T04:51:07.272Z,83.88
2019-01-17T04:52:07.301Z,83.59
2019-01-17T04:53:07.331Z,83.40
2019-01-17T04:54:07.360Z,83.78
2019-01-17T04:55:07.416Z,83.59
2019-01-17T04:56:07.419Z,83.59
2019-01-17T04:57:07.445Z,83.88
2019-01-17T04:58:07.475Z,83.88
2019-01-17T04:59:07.510Z,83.59
2019-01-17T05:00:08.323Z,83.59
2019-01-17T05:01:07.561Z,83.59
2019-01-17T05:02:07.613Z,83.59
2019-01-17T05:03:07.621Z,83.40
2019-01-17T05:04:07.647Z,83.78
2019-01-17T05:05:07.677Z,83.59
2019-01-17T05:06:07.707Z,83.59
2019-01-17T05:07:07.737Z,84.07
2019-01-17T05:08:07.769Z,84.17
2019-01-17T05:09:07.793Z,83.40
2019-01-17T05:10:07.822Z,83.88
2019-01-17T05:11:07.851Z,83.40
2019-01-17T05:12:07.881Z,83.59
2019-01-17T05:13:07.908Z,83.36
2019-01-17T05:14:07.947Z,83.50
2019-01-17T05:15:07.968Z,84.07
2019-01-17T05:16:07.995Z,84.17
2019-01-17T05:17:08.023Z,84.07
2019-01-17T05:18:08.071Z,84.11
2019-01-17T05:19:08.083Z,83.88
2019-01-17T05:20:08.114Z,84.59
2019-01-17T05:21:08.140Z,84.49
2019-01-17T05:22:08.171Z,84.40
2019-01-17T05:23:08.201Z,84.01
2019-01-17T05:24:08.233Z,84.40
2019-01-17T05:25:12.445Z,84.11
2019-01-17T05:26:08.286Z,84.11
2019-01-17T05:27:08.314Z,83.92
2019-01-17T05:28:08.345Z,84.01
2019-01-17T05:29:08.373Z,84.11
2019-01-17T05:30:08.401Z,83.83
2019-01-17T05:31:08.430Z,84.49
2019-01-17T05:32:08.460Z,84.11
2019-01-17T05:33:08.490Z,84.30
2019-01-17T05:34:08.527Z,84.30
2019-01-17T05:35:08.545Z,84.49
2019-01-17T05:36:08.581Z,84.59
2019-01-17T05:37:08.603Z,84.40
2019-01-17T05:38:08.634Z,84.49
2019-01-17T05:39:08.665Z,84.49
2019-01-17T05:40:08.692Z,84.21
2019-01-17T05:41:08.720Z,84.11
2019-01-17T05:42:08.769Z,84.21
2019-01-17T05:43:08.783Z,84.40
2019-01-17T05:44:08.815Z,84.49
2019-01-17T05:45:08.841Z,84.40
2019-01-17T05:46:08.864Z,84.49
2019-01-17T05:47:08.897Z,84.40
2019-01-17T05:48:08.924Z,84.49
2019-01-17T05:49:08.952Z,84.21
2019-01-17T05:50:08.980Z,84.59
2019-01-17T05:51:09.009Z,84.49
2019-01-17T05:52:09.042Z,84.40
2019-01-17T05:53:09.069Z,84.49
2019-01-17T05:54:09.096Z,84.49
2019-01-17T05:55:09.129Z,84.40
2019-01-17T05:56:09.156Z,84.49
2019-01-17T05:57:09.185Z,84.30
2019-01-17T05:58:09.213Z,84.78
2019-01-17T05:59:09.241Z,84.11
2019-01-17T06:00:09.272Z,84.21
2019-01-17T06:01:09.300Z,84.11
2019-01-17T06:02:09.331Z,84.21
2019-01-17T06:03:09.358Z,85.16
2019-01-17T06:04:09.388Z,85.35
2019-01-17T06:05:09.420Z,85.35
2019-01-17T06:06:09.446Z,85.25
2019-01-17T06:07:09.475Z,85.82
2019-01-17T06:08:09.504Z,85.35
2019-01-17T06:09:09.532Z,85.25
2019-01-17T06:10:09.565Z,85.44
2019-01-17T06:11:09.590Z,86.20
2019-01-17T06:12:09.619Z,86.11
2019-01-17T06:13:09.649Z,86.39
2019-01-17T06:14:09.678Z,85.53
2019-01-17T06:15:09.706Z,86.20
2019-01-17T06:16:09.735Z,86.20
2019-01-17T06:17:09.765Z,86.11
2019-01-17T06:18:09.794Z,85.91
2019-01-17T06:19:09.826Z,85.82
2019-01-17T06:20:09.852Z,86.11
2019-01-17T06:21:09.895Z,85.82
2019-01-17T06:22:09.914Z,86.20
2019-01-17T06:23:09.940Z,86.39
2019-01-17T06:24:09.969Z,86.11
2019-01-17T06:25:09.999Z,86.39
2019-01-17T06:26:10.027Z,86.49
2019-01-17T06:27:10.055Z,86.77
2019-01-17T06:28:10.087Z,86.30
2019-01-17T06:29:10.125Z,86.77
2019-01-17T06:30:10.144Z,86.77
2019-01-17T06:31:10.172Z,86.68
2019-01-17T06:32:10.211Z,86.87
2019-01-17T06:33:10.236Z,86.49
2019-01-17T06:34:10.261Z,86.68
2019-01-17T06:35:10.289Z,86.58
2019-01-17T06:36:10.321Z,87.43
2019-01-17T06:37:10.347Z,87.24
2019-01-17T06:38:10.377Z,87.05
2019-01-17T06:39:10.404Z,87.15
2019-01-17T06:40:10.434Z,87.82
2019-01-17T06:41:10.465Z,87.82
2019-01-17T06:42:10.502Z,87.72
2019-01-17T06:43:10.525Z,87.82
2019-01-17T06:44:10.550Z,87.82
2019-01-17T06:45:10.595Z,87.62
2019-01-17T06:46:10.609Z,87.62
2019-01-17T06:47:10.637Z,87.62
2019-01-17T06:48:10.668Z,87.53
2019-01-17T06:49:10.695Z,87.53
2019-01-17T06:50:10.726Z,87.43
2019-01-17T06:51:10.754Z,88.39
2019-01-17T06:52:10.784Z,88.10
2019-01-17T06:53:10.813Z,87.82
2019-01-17T06:54:10.842Z,87.53
2019-01-17T06:55:10.870Z,88.10
2019-01-17T06:56:10.902Z,88.10
2019-01-17T06:57:10.929Z,87.82
2019-01-17T06:58:10.959Z,87.82
2019-01-17T06:59:10.988Z,87.82
2019-01-17T07:00:11.016Z,87.53
2019-01-17T07:01:11.047Z,87.62
2019-01-17T07:02:11.075Z,87.43
2019-01-17T07:03:11.104Z,87.34
2019-01-17T07:04:11.131Z,87.15
2019-01-17T07:05:11.162Z,87.43
2019-01-17T07:06:11.191Z,87.43
2019-01-17T07:07:11.221Z,89.72
2019-01-17T07:08:11.248Z,90.57
2019-01-17T07:09:11.281Z,89.90
2019-01-17T07:10:11.309Z,90.09
2019-01-17T07:11:11.340Z,90.23
2019-01-17T07:12:11.366Z,89.86
2019-01-17T07:13:11.396Z,91.28
2019-01-17T07:14:11.427Z,89.00
2019-01-17T07:15:11.476Z,89.38
2019-01-17T07:16:11.481Z,90.23
2019-01-17T07:17:11.511Z,89.38
2019-01-17T07:18:11.542Z,87.76
2019-01-17T07:19:11.583Z,86.43
2019-01-17T07:20:11.599Z,86.15
2019-01-17T07:21:11.630Z,85.86
2019-01-17T07:22:11.658Z,86.24
2019-01-17T07:23:11.693Z,87.01
2019-01-17T07:24:11.715Z,86.91
2019-01-17T07:25:11.760Z,87.29
2019-01-17T07:26:11.777Z,87.01
2019-01-17T07:27:11.805Z,87.48
2019-01-17T07:28:11.837Z,87.57
2019-01-17T07:29:11.864Z,87.43
2019-01-17T07:30:11.894Z,88.10
2019-01-17T07:31:11.922Z,88.01
2019-01-17T07:32:11.952Z,88.29
2019-01-17T07:33:11.982Z,88.10
2019-01-17T07:34:12.010Z,88.20
2019-01-17T07:35:12.040Z,88.95
2019-01-17T07:36:12.072Z,88.76
2019-01-17T07:37:12.100Z,88.95
2019-01-17T07:38:12.128Z,88.67
2019-01-17T07:39:12.165Z,88.48
2019-01-17T07:40:12.186Z,88.67
2019-01-17T07:41:12.218Z,88.57
2019-01-17T07:42:12.247Z,89.05
2019-01-17T07:43:12.275Z,88.76
2019-01-17T07:44:12.313Z,88.67
2019-01-17T07:45:12.341Z,88.86
2019-01-17T07:46:12.363Z,88.76
2019-01-17T07:47:12.393Z,88.01
2019-01-17T07:48:12.422Z,87.82
2019-01-17T07:49:12.452Z,87.91
2019-01-17T07:50:12.496Z,88.86
2019-01-17T07:51:12.515Z,88.95
2019-01-17T07:52:12.541Z,88.76
2019-01-17T07:53:12.570Z,88.76
2019-01-17T07:54:12.601Z,88.48
2019-01-17T07:55:12.628Z,88.67
2019-01-17T07:56:12.658Z,88.67
2019-01-17T07:57:12.686Z,88.76
2019-01-17T07:58:12.718Z,88.95
2019-01-17T07:59:12.746Z,88.86
2019-01-17T08:00:12.778Z,88.48
2019-01-17T08:01:15.017Z,88.57
2019-01-17T08:02:12.834Z,88.76
2019-01-17T08:03:12.866Z,88.76
2019-01-17T08:04:12.893Z,89.05
2019-01-17T08:05:12.923Z,89.14
2019-01-17T08:06:12.951Z,89.24
2019-01-17T08:07:12.983Z,89.05
2019-01-17T08:08:13.010Z,89.05
2019-01-17T08:09:13.053Z,88.76
2019-01-17T08:10:13.072Z,88.86
2019-01-17T08:11:13.105Z,89.05
2019-01-17T08:12:13.129Z,89.43
2019-01-17T08:13:13.157Z,89.05
2019-01-17T08:14:13.189Z,89.14
2019-01-17T08:15:13.215Z,89.05
2019-01-17T08:16:13.247Z,89.62
2019-01-17T08:17:13.275Z,89.24
2019-01-17T08:18:18.671Z,89.43
2019-01-17T08:19:13.334Z,89.43
2019-01-17T08:20:13.362Z,88.95
2019-01-17T08:21:13.391Z,89.14
2019-01-17T08:22:20.598Z,88.86
2019-01-17T08:24:17.450Z,89.05
2019-01-17T08:25:17.479Z,89.43
2019-01-17T08:27:21.506Z,89.14
2019-01-17T08:28:21.532Z,88.48
2019-01-17T08:30:25.555Z,88.67
2019-01-17T08:31:25.578Z,88.48
2019-01-17T08:33:18.529Z,88.67
2019-01-17T08:34:18.552Z,88.48
2019-01-17T08:36:22.590Z,88.86
2019-01-17T08:37:22.617Z,89.05
2019-01-17T08:39:26.642Z,88.86
2019-01-17T08:40:26.670Z,87.91
2019-01-17T08:42:30.702Z,88.86
2019-01-17T08:43:30.725Z,88.86
2019-01-17T08:45:35.105Z,88.76
2019-01-17T08:46:34.772Z,87.91
2019-01-17T08:48:38.804Z,88.20
2019-01-17T08:49:38.827Z,88.01
2019-01-17T08:51:42.888Z,88.20
2019-01-17T08:52:42.881Z,87.91
2019-01-17T08:54:46.914Z,87.91
2019-01-17T08:55:46.935Z,88.10
2019-01-17T08:57:50.980Z,87.72
2019-01-17T08:58:50.982Z,87.53
2019-01-17T09:00:55.015Z,87.53
2019-01-17T09:01:55.045Z,87.34
2019-01-17T09:03:59.073Z,87.53
2019-01-17T09:04:59.097Z,87.72
2019-01-17T09:07:03.124Z,87.24
2019-01-17T09:08:03.146Z,87.24
2019-01-17T09:10:07.228Z,87.34
2019-01-17T09:11:07.249Z,87.29
2019-01-17T09:13:00.205Z,87.10
2019-01-17T09:14:00.228Z,87.10
2019-01-17T09:16:04.273Z,87.38
2019-01-17T09:17:04.296Z,87.19
2019-01-17T09:18:57.800Z,87.43
2019-01-17T09:19:57.473Z,87.19
2019-01-17T09:21:50.616Z,86.82
2019-01-17T09:22:50.658Z,87.19
2019-01-17T09:24:54.687Z,86.63
2019-01-17T09:25:54.702Z,86.91
2019-01-17T09:27:48.339Z,86.43
2019-01-17T09:28:48.366Z,86.43
2019-01-17T09:29:48.395Z,86.15
2019-01-17T09:30:48.424Z,85.86
2019-01-17T09:31:48.457Z,85.96
2019-01-17T09:32:48.481Z,85.96
2019-01-17T09:33:48.510Z,85.68
2019-01-17T09:34:48.541Z,85.86
2019-01-17T09:35:48.571Z,85.58
2019-01-17T09:36:48.599Z,86.05
2019-01-17T09:37:48.629Z,85.20
2019-01-17T09:38:48.659Z,85.30
2019-01-17T09:39:48.687Z,85.39
2019-01-17T09:40:48.718Z,84.72
2019-01-17T09:41:48.748Z,85.01
2019-01-17T09:42:48.776Z,84.91
2019-01-17T09:43:48.812Z,84.53
2019-01-17T09:44:48.836Z,84.53
2019-01-17T09:45:48.865Z,83.87
2019-01-17T09:46:48.899Z,84.72
2019-01-17T09:47:48.923Z,84.44
2019-01-17T09:48:48.953Z,84.82
2019-01-17T09:49:48.987Z,84.53
2019-01-17T09:50:49.011Z,84.63
2019-01-17T09:51:49.042Z,84.16
2019-01-17T09:52:49.071Z,85.01
2019-01-17T09:53:49.099Z,84.91
2019-01-17T09:54:49.130Z,84.82
2019-01-17T09:55:49.159Z,84.72
2019-01-17T09:56:49.188Z,85.11
2019-01-17T09:57:49.222Z,85.11
2019-01-17T09:58:49.246Z,85.39
2019-01-17T09:59:49.276Z,84.53
2019-01-17T10:00:49.306Z,84.72
2019-01-17T10:01:49.347Z,84.63
2019-01-17T10:02:49.364Z,84.82
2019-01-17T10:03:49.396Z,84.91
2019-01-17T10:04:49.423Z,84.25
2019-01-17T10:05:49.453Z,84.34
2019-01-17T10:06:49.485Z,84.16
2019-01-17T10:07:49.512Z,84.63
2019-01-17T10:08:50.787Z,83.87
2019-01-17T10:09:49.570Z,84.06
2019-01-17T10:10:49.601Z,83.78
2019-01-17T10:11:49.630Z,84.06
2019-01-17T10:12:49.659Z,84.25
2019-01-17T10:13:49.688Z,83.87
2019-01-17T10:14:49.720Z,83.01
2019-01-17T10:15:49.748Z,82.45
2019-01-17T10:16:49.778Z,82.26
2019-01-17T10:17:49.807Z,82.16
2019-01-17T10:18:49.837Z,81.78
2019-01-17T10:19:49.866Z,81.12
2019-01-17T10:20:49.895Z,80.74
2019-01-17T10:21:49.925Z,80.55
2019-01-17T10:22:49.953Z,80.45
2019-01-17T10:23:49.992Z,80.55
2019-01-17T10:24:50.012Z,80.64
2019-01-17T10:25:50.044Z,81.12
2019-01-17T10:26:50.075Z,80.55
2019-01-17T10:27:50.103Z,80.55
2019-01-17T10:28:50.130Z,80.35
2019-01-17T10:29:50.162Z,80.93
2019-01-17T10:30:50.190Z,80.55
2019-01-17T10:31:50.220Z,81.02
2019-01-17T10:32:50.249Z,80.93
2019-01-17T10:33:50.280Z,80.93
2019-01-17T10:34:50.313Z,80.07
2019-01-17T10:35:50.342Z,80.26
2019-01-17T10:36:50.367Z,79.60
2019-01-17T10:37:50.398Z,79.41
2019-01-17T10:38:50.428Z,79.60
2019-01-17T10:39:50.457Z,79.79
2019-01-17T10:40:50.485Z,79.50
2019-01-17T10:41:50.517Z,79.12
2019-01-17T10:42:50.545Z,79.31
2019-01-17T10:43:50.576Z,79.22
2019-01-17T10:44:50.603Z,79.22
2019-01-17T10:45:50.635Z,79.22
2019-01-17T10:46:50.665Z,79.69
2019-01-17T10:47:50.697Z,79.79
2019-01-17T10:48:50.724Z,79.79
2019-01-17T10:49:50.753Z,80.07
2019-01-17T10:50:50.782Z,80.07
2019-01-17T10:51:50.813Z,79.97
2019-01-17T10:52:50.842Z,79.69
2019-01-17T10:53:50.872Z,80.16
2019-01-17T10:54:50.903Z,80.64
2019-01-17T10:55:50.933Z,80.55
2019-01-17T10:56:50.966Z,79.79
2019-01-17T10:57:50.993Z,80.07
2019-01-17T10:58:51.021Z,80.07
2019-01-17T10:59:51.051Z,79.97
2019-01-17T11:00:51.082Z,80.16
2019-01-17T11:01:51.119Z,80.64
2019-01-17T11:02:51.139Z,80.55
2019-01-17T11:03:51.170Z,80.55
2019-01-17T11:04:51.198Z,80.83
2019-01-17T11:05:51.234Z,80.64
2019-01-17T11:06:51.260Z,80.45
2019-01-17T11:07:51.294Z,80.93
2019-01-17T11:08:51.319Z,80.64
2019-01-17T11:09:51.351Z,80.83
2019-01-17T11:10:51.385Z,80.83
2019-01-17T11:11:51.408Z,80.64
2019-01-17T11:12:51.437Z,80.83
2019-01-17T11:13:51.467Z,80.83
2019-01-17T11:14:51.499Z,80.74
2019-01-17T11:15:51.530Z,80.55
2019-01-17T11:16:51.556Z,80.83
2019-01-17T11:17:51.587Z,80.35
2019-01-17T11:18:51.617Z,80.55
2019-01-17T11:19:51.646Z,80.93
2019-01-17T11:20:51.676Z,80.93
2019-01-17T11:21:51.707Z,80.55
2019-01-17T11:22:51.737Z,80.11
2019-01-17T11:23:51.771Z,80.58
2019-01-17T11:24:51.795Z,80.30
2019-01-17T11:25:51.825Z,80.58
2019-01-17T11:26:51.855Z,80.87
2019-01-17T11:27:51.891Z,80.77
2019-01-17T11:28:51.915Z,80.58
2019-01-17T11:29:51.945Z,80.68
2019-01-17T11:30:51.974Z,80.02
2019-01-17T11:31:52.005Z,80.30
2019-01-17T11:32:52.033Z,79.44
2019-01-17T11:33:52.065Z,79.63
2019-01-17T11:34:52.095Z,79.73
2019-01-17T11:35:52.125Z,79.44
2019-01-17T11:36:52.154Z,79.35
2019-01-17T11:37:52.183Z,79.44
2019-01-17T11:38:52.213Z,78.97
2019-01-17T11:39:52.250Z,78.97
2019-01-17T11:40:52.272Z,79.54
2019-01-17T11:41:52.310Z,79.73
2019-01-17T11:42:52.343Z,79.44
2019-01-17T11:43:52.364Z,79.63
2019-01-17T11:44:52.397Z,78.97
2019-01-17T11:45:52.423Z,79.16
2019-01-17T11:46:52.455Z,78.88
2019-01-17T11:47:52.485Z,79.06
2019-01-17T11:48:52.899Z,78.97
2019-01-17T11:49:52.544Z,79.16
2019-01-17T11:50:52.572Z,79.63
2019-01-17T11:51:52.604Z,79.73
2019-01-17T11:52:52.634Z,79.16
2019-01-17T11:53:52.665Z,79.63
2019-01-17T11:54:52.698Z,79.25
2019-01-17T11:55:52.722Z,79.44
2019-01-17T11:56:52.752Z,79.35
2019-01-17T11:57:52.782Z,78.11
2019-01-17T11:58:52.811Z,78.40
2019-01-17T11:59:52.845Z,76.59
2019-01-17T12:00:52.872Z,76.12
2019-01-17T12:01:52.902Z,75.64
2019-01-17T12:02:52.932Z,75.74
2019-01-17T12:03:52.963Z,75.55
2019-01-17T12:04:52.992Z,75.55
2019-01-17T12:05:53.022Z,74.98
2019-01-17T12:06:53.051Z,74.69
2019-01-17T12:07:53.084Z,74.22
2019-01-17T12:08:53.114Z,74.69
2019-01-17T12:09:53.141Z,74.41
2019-01-17T12:10:53.171Z,74.60
2019-01-17T12:11:53.200Z,74.31
2019-01-17T12:12:53.230Z,74.22
2019-01-17T12:13:53.262Z,74.08
2019-01-17T12:14:53.291Z,74.69
2019-01-17T12:15:53.322Z,74.60
2019-01-17T12:16:53.353Z,74.66
2019-01-17T12:17:53.381Z,74.47
2019-01-17T12:18:53.410Z,74.75
2019-01-17T12:19:53.440Z,75.42
2019-01-17T12:20:53.469Z,75.79
2019-01-17T12:21:53.502Z,75.99
2019-01-17T12:22:53.530Z,76.46
2019-01-17T12:23:53.559Z,77.31
2019-01-17T12:24:53.590Z,77.22
2019-01-17T12:25:53.618Z,77.31
2019-01-17T12:26:53.649Z,77.79
2019-01-17T12:27:53.680Z,77.70
2019-01-17T12:28:53.709Z,77.89
2019-01-17T12:29:53.738Z,77.60
2019-01-17T12:30:53.768Z,77.70
2019-01-17T12:31:53.798Z,77.60
2019-01-17T12:32:53.827Z,78.17
2019-01-17T12:33:53.856Z,77.17
2019-01-17T12:34:53.886Z,76.59
2019-01-17T12:35:53.919Z,76.50
2019-01-17T12:36:53.947Z,76.21
2019-01-17T12:37:53.975Z,75.55
2019-01-17T12:38:54.005Z,75.74
2019-01-17T12:39:54.037Z,75.74
2019-01-17T12:40:54.065Z,74.60
2019-01-17T12:41:54.098Z,74.54
2019-01-17T12:42:54.126Z,73.97
2019-01-17T12:43:54.156Z,73.44
2019-01-17T12:44:54.187Z,72.77
2019-01-17T12:45:54.217Z,70.90
2019-01-17T12:46:54.245Z,69.38
2019-01-17T12:47:54.275Z,68.15
2019-01-17T12:48:54.304Z,67.67
2019-01-17T12:49:54.337Z,68.05
2019-01-17T12:50:54.369Z,67.19
2019-01-17T12:51:54.396Z,68.15
2019-01-17T12:52:54.427Z,67.89
2019-01-17T12:53:54.457Z,68.02
2019-01-17T12:54:54.488Z,65.45
2019-01-17T12:55:54.519Z,63.57
2019-01-17T12:56:54.550Z,62.08
2019-01-17T12:57:54.578Z,60.87
2019-01-17T12:58:54.611Z,57.94
2019-01-17T12:59:54.642Z,55.40
2019-01-17T13:00:54.679Z,54.63
2019-01-17T13:01:54.703Z,55.40
2019-01-17T13:02:54.737Z,55.52
2019-01-17T13:03:54.769Z,53.32
2019-01-17T13:04:54.800Z,52.39
2019-01-17T13:05:54.831Z,50.05
2019-01-17T13:06:54.863Z,48.25
2019-01-17T13:07:54.897Z,46.84
2019-01-17T13:08:54.927Z,44.95
2019-01-17T13:09:54.961Z,44.18
2019-01-17T13:10:54.996Z,43.49
2019-01-17T13:11:55.027Z,45.02
2019-01-17T13:12:55.060Z,44.93
2019-01-17T13:13:55.096Z,44.83
2019-01-17T13:14:55.127Z,44.95
2019-01-17T13:15:55.161Z,44.42